createdAt,value
2022-08-01T00:00:13.135Z,3.85
2022-08-01T00:02:47.162Z,4.32
2022-08-01T00:05:14.534Z,4.82
2022-08-01T00:07:41.841Z,6.10
2022-08-01T00:10:15.188Z,4.35
2022-08-01T00:12:43.621Z,6.22
2022-08-01T00:15:12.847Z,5.25
2022-08-01T00:17:46.490Z,4.72
2022-08-01T00:20:14.940Z,3.53
2022-08-01T00:22:42.272Z,4.32
2022-08-01T00:25:10.031Z,5.40
2022-08-01T00:27:41.026Z,4.32
2022-08-01T00:30:14.623Z,4.38
2022-08-01T00:32:43.640Z,6.53
2022-08-01T00:35:15.976Z,4.22
2022-08-01T00:37:47.380Z,7.30
2022-08-01T00:40:16.158Z,7.28
2022-08-01T00:42:45.805Z,4.38
2022-08-01T00:45:13.076Z,5.43
2022-08-01T00:47:40.581Z,7.28
2022-08-01T00:50:08.907Z,6.30
2022-08-01T00:52:36.797Z,5.82
2022-08-01T00:55:04.729Z,8.05
2022-08-01T00:58:03.407Z,4.73
2022-08-01T01:00:20.419Z,6.05
2022-08-01T01:02:54.589Z,8.70
2022-08-01T01:05:22.481Z,6.25
2022-08-01T01:08:03.439Z,6.90
2022-08-01T01:10:41.313Z,6.90
2022-08-01T01:13:21.489Z,5.53
2022-08-01T01:15:56.166Z,4.43
2022-08-01T01:18:32.987Z,5.13
2022-08-01T01:21:22.553Z,6.45
2022-08-01T01:24:19.864Z,5.50
2022-08-01T01:26:52.744Z,3.95
2022-08-01T01:29:58.580Z,7.78
2022-08-01T01:32:35.315Z,7.35
2022-08-01T01:35:09.996Z,6.72
2022-08-01T01:37:42.628Z,6.72
2022-08-01T01:40:13.409Z,7.90
2022-08-01T01:42:43.208Z,9.07
2022-08-01T01:45:15.848Z,5.72
2022-08-01T01:47:54.453Z,7.57
2022-08-01T01:50:23.341Z,7.13
2022-08-01T01:52:51.938Z,6.70
2022-08-01T01:55:27.137Z,6.70
2022-08-01T01:57:56.458Z,6.97
2022-08-01T02:00:24.748Z,7.53
2022-08-01T02:02:57.353Z,7.75
2022-08-01T02:05:26.130Z,8.50
2022-08-01T02:07:59.684Z,6.53
2022-08-01T02:10:29.324Z,7.63
2022-08-01T02:15:32.289Z,11.35
2022-08-01T02:18:02.010Z,4.95
2022-08-01T02:20:31.334Z,6.45
2022-08-01T02:23:08.296Z,10.55
2022-08-01T02:26:11.105Z,6.45
2022-08-01T02:28:42.981Z,11.50
2022-08-01T02:31:15.193Z,8.18
2022-08-01T02:33:51.241Z,8.65
2022-08-01T02:36:30.853Z,7.03
2022-08-01T02:39:03.847Z,6.85
2022-08-01T02:41:40.589Z,7.50
2022-08-01T02:44:10.434Z,8.40
2022-08-01T02:46:41.682Z,5.75
2022-08-01T02:49:11.266Z,6.22
2022-08-01T02:51:49.198Z,8.75
2022-08-01T02:54:19.323Z,8.52
2022-08-01T02:56:57.038Z,6.43
2022-08-01T02:59:28.454Z,6.80
2022-08-01T03:02:02.917Z,9.20
2022-08-01T03:04:33.413Z,9.75
2022-08-01T03:07:11.950Z,10.55
2022-08-01T03:09:41.705Z,10.05
2022-08-01T03:12:17.389Z,8.93
2022-08-01T03:14:47.583Z,9.98
2022-08-01T03:17:21.191Z,9.18
2022-08-01T03:19:50.762Z,7.95
2022-08-01T03:22:19.756Z,8.07
2022-08-01T03:24:50.886Z,11.27
2022-08-01T03:27:21.457Z,8.02
2022-08-01T03:29:57.918Z,9.75
2022-08-01T03:32:29.020Z,8.43
2022-08-01T03:34:56.711Z,7.68
2022-08-01T03:38:14.295Z,9.13
2022-08-01T03:40:42.315Z,10.55
2022-08-01T03:43:26.749Z,10.52
2022-08-01T03:45:58.805Z,12.18
2022-08-01T03:48:30.666Z,12.25
2022-08-01T03:51:00.171Z,9.18
2022-08-01T03:53:31.713Z,8.15
2022-08-01T03:56:03.662Z,13.68
2022-08-01T03:58:31.660Z,8.13
2022-08-01T04:00:59.777Z,9.48
2022-08-01T04:03:27.444Z,12.18
2022-08-01T04:05:54.862Z,13.23
2022-08-01T04:08:22.171Z,11.35
2022-08-01T04:10:56.410Z,13.13
2022-08-01T04:13:24.013Z,11.63
2022-08-01T04:15:51.312Z,12.07
2022-08-01T04:18:18.499Z,13.18
2022-08-01T04:20:47.676Z,14.30
2022-08-01T04:23:21.669Z,12.10
2022-08-01T04:25:51.117Z,11.82
2022-08-01T04:28:20.675Z,9.70
2022-08-01T04:30:52.726Z,12.40
2022-08-01T04:33:21.197Z,13.77
2022-08-01T04:36:02.019Z,12.33
2022-08-01T04:38:37.508Z,12.80
2022-08-01T04:41:08.691Z,13.10
2022-08-01T04:43:37.959Z,14.43
2022-08-01T04:46:10.657Z,14.60
2022-08-01T04:48:39.628Z,13.90
2022-08-01T04:51:16.008Z,12.40
2022-08-01T04:53:44.613Z,14.75
2022-08-01T04:56:13.963Z,19.38
2022-08-01T05:01:14.987Z,16.52
2022-08-01T05:03:42.396Z,15.30
2022-08-01T05:06:19.169Z,16.52
2022-08-01T05:08:51.792Z,14.05
2022-08-01T05:11:18.994Z,17.58
2022-08-01T05:13:49.745Z,17.15
2022-08-01T05:16:17.865Z,15.02
2022-08-01T05:18:45.119Z,13.45
2022-08-01T05:21:14.905Z,16.17
2022-08-01T05:23:43.574Z,15.88
2022-08-01T05:26:14.554Z,15.18
2022-08-01T05:28:42.693Z,15.13
2022-08-01T05:31:09.784Z,16.50
2022-08-01T05:33:36.856Z,16.13
2022-08-01T05:36:04.321Z,16.50
2022-08-01T05:38:34.464Z,19.35
2022-08-01T05:41:01.938Z,14.88
2022-08-01T05:43:29.392Z,17.15
2022-08-01T05:45:56.877Z,18.15
2022-08-01T05:48:24.015Z,15.70
2022-08-01T05:50:54.650Z,19.52
2022-08-01T05:53:25.412Z,16.48
2022-08-01T05:55:52.393Z,16.13
2022-08-01T05:58:19.639Z,15.68
2022-08-01T06:00:46.828Z,19.50
2022-08-01T06:03:15.243Z,22.80
2022-08-01T06:05:42.340Z,18.15
2022-08-01T06:08:09.678Z,20.35
2022-08-01T06:10:40.712Z,21.15
2022-08-01T06:13:08.046Z,21.88
2022-08-01T06:15:35.409Z,22.70
2022-08-01T06:18:02.518Z,19.17
2022-08-01T06:20:29.742Z,20.38
2022-08-01T06:22:56.980Z,20.90
2022-08-01T06:25:34.265Z,19.95
2022-08-01T06:28:01.817Z,19.42
2022-08-01T06:30:29.101Z,17.55
2022-08-01T06:33:05.746Z,19.23
2022-08-01T06:35:32.873Z,24.48
2022-08-01T06:38:00.009Z,19.63
2022-08-01T06:40:27.586Z,21.30
2022-08-01T06:42:54.766Z,20.85
2022-08-01T06:45:23.315Z,21.27
2022-08-01T06:47:51.105Z,20.27
2022-08-01T06:50:18.589Z,21.73
2022-08-01T06:52:47.144Z,19.77
2022-08-01T06:55:14.440Z,18.00
2022-08-01T06:57:54.193Z,17.27
2022-08-01T07:00:23.575Z,20.67
2022-08-01T07:03:02.877Z,15.75
2022-08-01T07:05:31.972Z,24.10
2022-08-01T07:08:00.222Z,18.83
2022-08-01T07:10:27.417Z,17.98
2022-08-01T07:12:54.498Z,17.85
2022-08-01T07:15:27.155Z,18.40
2022-08-01T07:17:54.434Z,16.92
2022-08-01T07:20:26.974Z,16.00
2022-08-01T07:22:54.310Z,14.95
2022-08-01T07:27:50.756Z,18.17
2022-08-01T07:30:19.661Z,15.18
2022-08-01T07:32:46.956Z,15.88
2022-08-01T07:35:14.464Z,17.55
2022-08-01T07:37:46.297Z,18.17
2022-08-01T07:40:19.002Z,18.92
2022-08-01T07:42:47.658Z,16.45
2022-08-01T07:45:16.102Z,17.90
2022-08-01T07:47:47.941Z,17.33
2022-08-01T07:50:15.100Z,16.95
2022-08-01T07:52:42.650Z,15.57
2022-08-01T07:55:11.827Z,15.90
2022-08-01T07:57:43.997Z,15.45
2022-08-01T08:00:11.673Z,17.23
2022-08-01T08:02:41.221Z,16.38
2022-08-01T08:05:14.135Z,13.90
2022-08-01T08:07:41.565Z,15.43
2022-08-01T08:10:09.469Z,15.65
2022-08-01T08:12:36.449Z,15.27
2022-08-01T08:15:06.604Z,15.63
2022-08-01T08:17:35.905Z,12.80
2022-08-01T08:20:10.021Z,15.77
2022-08-01T08:22:37.593Z,14.85
2022-08-01T08:25:05.609Z,16.85
2022-08-01T08:27:35.436Z,19.50
2022-08-01T08:30:09.855Z,14.32
2022-08-01T08:32:37.141Z,14.02
2022-08-01T08:35:05.863Z,15.25
2022-08-01T08:37:39.075Z,17.20
2022-08-01T08:40:16.581Z,16.25
2022-08-01T08:42:48.444Z,13.88
2022-08-01T08:45:15.657Z,15.23
2022-08-01T08:47:44.421Z,16.05
2022-08-01T08:50:14.805Z,17.80
2022-08-01T08:52:43.512Z,12.98
2022-08-01T08:55:12.393Z,17.55
2022-08-01T08:57:41.505Z,13.95
2022-08-01T09:00:14.122Z,13.50
2022-08-01T09:02:47.590Z,10.60
2022-08-01T09:05:19.497Z,12.02
2022-08-01T09:07:47.246Z,10.45
2022-08-01T09:10:14.410Z,11.90
2022-08-01T09:13:03.080Z,13.50
2022-08-01T09:15:41.074Z,11.52
2022-08-01T09:18:34.859Z,13.07
2022-08-01T09:21:15.275Z,12.50
2022-08-01T09:23:54.215Z,13.43
2022-08-01T09:29:05.916Z,13.00
2022-08-01T09:31:47.677Z,10.93
2022-08-01T09:34:19.741Z,10.88
2022-08-01T09:36:56.622Z,13.02
2022-08-01T09:39:32.018Z,12.60
2022-08-01T09:42:01.622Z,14.18
2022-08-01T09:44:44.746Z,12.40
2022-08-01T09:47:15.506Z,12.02
2022-08-01T09:49:50.579Z,11.50
2022-08-01T09:52:29.122Z,13.68
2022-08-01T09:55:01.905Z,12.82
2022-08-01T09:57:30.322Z,13.70
2022-08-01T10:00:01.271Z,10.60
2022-08-01T10:02:37.592Z,12.82
2022-08-01T10:05:08.260Z,12.57
2022-08-01T10:08:07.781Z,11.75
2022-08-01T10:10:37.435Z,13.68
2022-08-01T10:15:37.450Z,11.05
2022-08-01T10:18:16.111Z,9.77
2022-08-01T10:20:44.503Z,11.18
2022-08-01T10:23:12.716Z,8.98
2022-08-01T10:25:46.949Z,9.73
2022-08-01T10:28:17.824Z,9.57
2022-08-01T10:30:55.476Z,10.93
2022-08-01T10:33:50.900Z,16.40
2022-08-01T10:36:11.929Z,11.35
2022-08-01T10:38:40.419Z,11.77
2022-08-01T10:41:08.797Z,12.73
2022-08-01T10:43:36.999Z,8.52
2022-08-01T10:46:06.965Z,11.88
2022-08-01T10:48:47.897Z,12.15
2022-08-01T10:51:17.837Z,9.45
2022-08-01T10:53:54.338Z,10.20
2022-08-01T10:56:46.759Z,11.10
2022-08-01T10:59:49.362Z,8.25
2022-08-01T11:02:09.756Z,10.23
2022-08-01T11:04:46.502Z,8.80
2022-08-01T11:07:25.816Z,9.88
2022-08-01T11:10:16.643Z,9.55
2022-08-01T11:12:44.270Z,8.88
2022-08-01T11:15:11.585Z,12.93
2022-08-01T11:17:49.108Z,10.38
2022-08-01T11:20:33.627Z,12.20
2022-08-01T11:23:12.722Z,9.88
2022-08-01T11:26:05.146Z,8.15
2022-08-01T11:28:41.275Z,11.68
2022-08-01T11:33:49.593Z,10.88
2022-08-01T11:36:16.989Z,9.07
2022-08-01T11:38:51.197Z,8.20
2022-08-01T11:41:36.849Z,12.43
2022-08-01T11:44:30.527Z,9.48
2022-08-01T11:47:09.146Z,9.05
2022-08-01T11:49:37.335Z,12.35
2022-08-01T11:52:16.853Z,9.85
2022-08-01T11:54:46.302Z,8.60
2022-08-01T11:57:23.472Z,9.85
2022-08-01T12:00:03.969Z,9.07
2022-08-01T12:02:35.022Z,11.02
2022-08-01T12:05:11.684Z,10.88
2022-08-01T12:07:41.616Z,7.53
2022-08-01T12:10:15.061Z,9.75
2022-08-01T12:12:49.687Z,7.95
2022-08-01T12:15:19.635Z,9.32
2022-08-01T12:17:58.308Z,10.23
2022-08-01T12:20:31.963Z,9.52
2022-08-01T12:23:08.383Z,7.50
2022-08-01T12:25:36.516Z,6.78
2022-08-01T12:28:05.785Z,8.98
2022-08-01T12:30:39.859Z,6.80
2022-08-01T12:33:09.612Z,7.15
2022-08-01T12:35:41.669Z,7.80
2022-08-01T12:38:18.717Z,8.63
2022-08-01T12:40:51.693Z,7.90
2022-08-01T12:43:28.596Z,10.43
2022-08-01T12:45:59.942Z,7.50
2022-08-01T12:48:32.434Z,6.35
2022-08-01T12:51:02.017Z,10.93
2022-08-01T12:53:41.142Z,6.43
2022-08-01T12:58:37.647Z,6.95
2022-08-01T13:01:14.161Z,6.75
2022-08-01T13:03:58.502Z,9.07
2022-08-01T13:06:31.764Z,8.48
2022-08-01T13:09:14.243Z,7.38
2022-08-01T13:12:09.612Z,8.98
2022-08-01T13:14:41.702Z,11.23
2022-08-01T13:17:09.342Z,8.93
2022-08-01T13:19:48.063Z,10.57
2022-08-01T13:22:18.324Z,10.45
2022-08-01T13:25:10.482Z,9.30
2022-08-01T13:27:53.750Z,8.38
2022-08-01T13:30:25.892Z,8.50
2022-08-01T13:33:11.385Z,7.47
2022-08-01T13:35:38.428Z,6.47
2022-08-01T13:38:09.369Z,8.68
2022-08-01T13:40:36.614Z,6.15
2022-08-01T13:43:03.756Z,6.60
2022-08-01T13:45:30.865Z,9.10
2022-08-01T13:48:12.929Z,6.88
2022-08-01T13:51:13.527Z,9.70
2022-08-01T13:53:58.417Z,6.47
2022-08-01T13:56:28.958Z,6.85
2022-08-01T13:58:56.534Z,5.63
2022-08-01T14:01:24.614Z,6.85
2022-08-01T14:03:52.454Z,4.32
2022-08-01T14:06:23.092Z,5.00
2022-08-01T14:08:50.789Z,3.53
2022-08-01T14:11:24.412Z,3.35
2022-08-01T14:13:54.873Z,2.95
2022-08-01T14:16:40.497Z,5.53
2022-08-01T14:19:07.894Z,5.55
2022-08-01T14:21:35.086Z,6.32
2022-08-01T14:24:02.153Z,6.13
2022-08-01T14:26:29.407Z,4.63
2022-08-01T14:29:04.234Z,6.25
2022-08-01T14:31:34.667Z,5.38
2022-08-01T14:34:02.425Z,8.32
2022-08-01T14:36:39.398Z,6.38
2022-08-01T14:39:15.287Z,3.85
2022-08-01T14:41:49.084Z,5.25
2022-08-01T14:44:25.270Z,5.18
2022-08-01T14:46:59.985Z,4.35
2022-08-01T14:49:38.135Z,3.92
2022-08-01T14:52:31.131Z,7.43
2022-08-01T14:54:58.323Z,6.28
2022-08-01T14:57:25.758Z,5.03
2022-08-01T14:59:57.206Z,6.65
2022-08-01T15:02:28.187Z,8.70
2022-08-01T15:04:55.637Z,8.18
2022-08-01T15:07:22.825Z,5.43
2022-08-01T15:09:50.648Z,2.85
2022-08-01T15:12:49.830Z,2.47
2022-08-01T15:15:26.050Z,4.05
2022-08-01T15:17:54.322Z,6.10
2022-08-01T15:20:25.505Z,4.90
2022-08-01T15:22:53.693Z,3.45
2022-08-01T15:25:24.585Z,4.35
2022-08-01T15:27:52.153Z,3.38
2022-08-01T15:30:23.689Z,4.85
2022-08-01T15:32:54.680Z,3.63
2022-08-01T15:35:21.927Z,5.60
2022-08-01T15:37:49.081Z,5.05
2022-08-01T15:40:17.226Z,3.53
2022-08-01T15:42:50.891Z,6.10
2022-08-01T15:45:47.332Z,4.38
2022-08-01T15:48:09.456Z,3.97
2022-08-01T15:50:51.445Z,5.38
2022-08-01T15:53:23.539Z,4.97
2022-08-01T15:55:52.318Z,3.78
2022-08-01T15:58:20.347Z,3.75
2022-08-01T16:00:52.941Z,4.28
2022-08-01T16:03:21.802Z,4.30
2022-08-01T16:05:50.435Z,5.03
2022-08-01T16:10:47.186Z,10.43
2022-08-01T16:13:18.733Z,3.17
2022-08-01T16:15:53.417Z,8.27
2022-08-01T16:18:23.372Z,5.53
2022-08-01T16:20:50.485Z,6.85
2022-08-01T16:23:17.621Z,6.10
2022-08-01T16:25:51.793Z,4.68
2022-08-01T16:28:21.798Z,4.13
2022-08-01T16:31:10.112Z,6.05
2022-08-01T16:33:58.190Z,5.00
2022-08-01T16:39:14.193Z,3.05
2022-08-01T16:41:55.136Z,3.83
2022-08-01T16:44:28.576Z,5.40
2022-08-01T16:47:03.609Z,6.90
2022-08-01T16:49:32.009Z,2.47
2022-08-01T16:52:07.333Z,4.60
2022-08-01T16:54:53.210Z,4.72
2022-08-01T16:57:20.424Z,4.70
2022-08-01T16:59:47.658Z,4.50
2022-08-01T17:02:15.608Z,2.75
2022-08-01T17:04:42.929Z,5.70
2022-08-01T17:07:15.251Z,6.97
2022-08-01T17:09:57.553Z,5.82
2022-08-01T17:12:24.840Z,4.82
2022-08-01T17:15:10.924Z,4.72
2022-08-01T17:17:43.913Z,4.82
2022-08-01T17:20:29.632Z,7.32
2022-08-01T17:22:57.143Z,7.28
2022-08-01T17:25:24.581Z,9.10
2022-08-01T17:27:58.653Z,10.57
2022-08-01T17:30:44.238Z,9.18
2022-08-01T17:33:11.540Z,8.18
2022-08-01T17:35:38.740Z,7.03
2022-08-01T17:38:06.001Z,7.05
2022-08-01T17:40:40.560Z,4.07
2022-08-01T17:43:08.868Z,7.28
2022-08-01T17:45:47.633Z,8.52
2022-08-01T17:48:24.096Z,5.93
2022-08-01T17:51:10.056Z,8.23
2022-08-01T17:53:37.333Z,13.57
2022-08-01T17:56:23.679Z,7.93
2022-08-01T17:58:52.585Z,7.13
2022-08-01T18:01:38.020Z,7.10
2022-08-01T18:04:20.717Z,5.97
2022-08-01T18:06:58.107Z,7.20
2022-08-01T18:09:32.672Z,5.53
2022-08-01T18:12:02.027Z,5.20
2022-08-01T18:14:39.985Z,6.53
2022-08-01T18:17:11.161Z,6.43
2022-08-01T18:19:39.882Z,5.15
2022-08-01T18:22:31.517Z,8.55
2022-08-01T18:25:08.350Z,7.72
2022-08-01T18:28:25.778Z,6.35
2022-08-01T18:30:23.773Z,3.15
2022-08-01T18:32:50.996Z,4.20
2022-08-01T18:35:18.392Z,5.93
2022-08-01T18:37:57.100Z,4.93
2022-08-01T18:40:34.980Z,7.15
2022-08-01T18:43:20.618Z,4.53
2022-08-01T18:45:57.676Z,6.18
2022-08-01T18:48:28.891Z,4.25
2022-08-01T18:50:56.203Z,3.70
2022-08-01T18:53:26.213Z,4.90
2022-08-01T18:55:53.433Z,5.47
2022-08-01T18:58:39.894Z,6.25
2022-08-01T19:01:07.219Z,6.35
2022-08-01T19:03:42.526Z,3.20
2022-08-01T19:06:14.355Z,7.07
2022-08-01T19:08:41.704Z,3.47
2022-08-01T19:11:08.856Z,4.50
2022-08-01T19:13:44.279Z,6.40
2022-08-01T19:16:11.710Z,9.13
2022-08-01T19:18:57.650Z,4.93
2022-08-01T19:21:27.845Z,7.80
2022-08-01T19:24:22.737Z,7.35
2022-08-01T19:26:53.781Z,3.97
2022-08-01T19:29:24.114Z,5.32
2022-08-01T19:32:08.136Z,7.50
2022-08-01T19:34:39.825Z,4.43
2022-08-01T19:37:10.064Z,3.92
2022-08-01T19:39:51.787Z,4.50
2022-08-01T19:42:20.357Z,6.07
2022-08-01T19:44:48.929Z,7.03
2022-08-01T19:47:17.203Z,6.53
2022-08-01T19:50:05.038Z,3.88
2022-08-01T19:52:36.486Z,6.50
2022-08-01T19:55:10.290Z,2.95
2022-08-01T19:58:16.959Z,6.35
2022-08-01T20:03:05.215Z,6.28
2022-08-01T20:05:34.224Z,4.47
2022-08-01T20:08:09.693Z,4.18
2022-08-01T20:10:56.673Z,3.28
2022-08-01T20:13:24.121Z,5.03
2022-08-01T20:15:53.113Z,4.57
2022-08-01T20:18:20.436Z,5.97
2022-08-01T20:20:52.442Z,6.22
2022-08-01T20:23:24.674Z,7.45
2022-08-01T20:25:54.864Z,4.60
2022-08-01T20:28:30.606Z,3.28
2022-08-01T20:31:05.286Z,6.80
2022-08-01T20:33:44.886Z,7.30
2022-08-01T20:36:25.806Z,4.13
2022-08-01T20:38:55.195Z,6.95
2022-08-01T20:41:25.325Z,10.80
2022-08-01T20:43:57.533Z,5.47
2022-08-01T20:46:28.699Z,6.20
2022-08-01T20:48:58.304Z,6.22
2022-08-01T20:53:56.141Z,6.75
2022-08-01T20:56:29.852Z,9.30
2022-08-01T20:59:39.887Z,4.68
2022-08-01T21:02:35.351Z,3.92
2022-08-01T21:05:07.517Z,8.10
2022-08-01T21:07:58.997Z,6.07
2022-08-01T21:10:28.817Z,7.93
2022-08-01T21:13:05.654Z,8.10
2022-08-01T21:16:07.433Z,8.10
2022-08-01T21:22:01.266Z,6.80
2022-08-01T21:24:41.314Z,4.13
2022-08-01T21:27:09.563Z,4.03
2022-08-01T21:29:56.518Z,5.68
2022-08-01T21:32:29.621Z,5.07
2022-08-01T21:34:56.946Z,5.88
2022-08-01T21:37:24.427Z,6.28
2022-08-01T21:39:55.019Z,6.53
2022-08-01T21:42:37.658Z,6.18
2022-08-01T21:45:24.992Z,8.27
2022-08-01T21:47:53.242Z,6.90
2022-08-01T21:50:21.161Z,9.18
2022-08-01T21:52:54.078Z,9.10
2022-08-01T21:55:34.929Z,9.95
2022-08-01T21:58:24.809Z,6.05
2022-08-01T22:01:03.252Z,5.93
2022-08-01T22:06:09.680Z,5.38
2022-08-01T22:08:48.602Z,7.07
2022-08-01T22:11:20.776Z,7.47
2022-08-01T22:13:53.646Z,6.53
2022-08-01T22:16:31.441Z,4.97
2022-08-01T22:19:01.610Z,4.35
2022-08-01T22:21:37.655Z,5.07
2022-08-01T22:24:11.938Z,5.60
2022-08-01T22:26:41.431Z,4.70
2022-08-01T22:31:38.104Z,7.07
2022-08-01T22:34:07.085Z,7.03
2022-08-01T22:36:43.996Z,6.47
2022-08-01T22:39:26.362Z,6.32
2022-08-01T22:42:01.280Z,4.32
2022-08-01T22:45:19.974Z,7.50
2022-08-01T22:47:54.871Z,7.90
2022-08-01T22:50:39.543Z,7.28
2022-08-01T22:53:26.429Z,5.05
2022-08-01T22:55:58.941Z,7.80
2022-08-01T22:58:40.163Z,9.93
2022-08-01T23:01:12.596Z,7.72
2022-08-01T23:04:11.868Z,4.78
2022-08-01T23:06:50.812Z,6.50
2022-08-01T23:09:20.310Z,7.30
2022-08-01T23:11:53.051Z,8.18
2022-08-01T23:14:27.214Z,5.50
2022-08-01T23:16:56.986Z,11.65
2022-08-01T23:19:27.783Z,6.82
2022-08-01T23:21:55.537Z,7.97
2022-08-01T23:24:33.639Z,7.05
2022-08-01T23:27:54.424Z,6.75
2022-08-01T23:30:14.250Z,10.38
2022-08-01T23:33:00.215Z,11.07
2022-08-01T23:35:29.073Z,9.38
2022-08-01T23:38:02.032Z,7.87
2022-08-01T23:40:31.986Z,8.07
2022-08-01T23:43:00.273Z,7.70
2022-08-01T23:48:25.449Z,8.55
2022-08-01T23:50:58.657Z,10.15
2022-08-01T23:53:44.050Z,8.25
2022-08-01T23:56:25.425Z,8.55
2022-08-01T23:59:02.838Z,7.75
